createdAt,value
2022-08-19T00:04:21.212Z,87.7
2022-08-19T00:09:21.166Z,88.5
2022-08-19T00:14:21.167Z,88.8
2022-08-19T00:19:21.174Z,89.1
2022-08-19T00:24:21.182Z,89.7
2022-08-19T00:29:21.167Z,90.1
2022-08-19T00:34:21.181Z,90.5
2022-08-19T00:39:21.187Z,90.8
2022-08-19T00:44:21.180Z,91.0
2022-08-19T00:49:21.184Z,91.4
2022-08-19T00:54:28.285Z,91.3
2022-08-19T01:00:02.012Z,91.5
2022-08-19T01:04:21.192Z,91.5
2022-08-19T01:09:21.202Z,91.7
2022-08-19T01:14:21.194Z,91.8
2022-08-19T01:19:21.195Z,91.9
2022-08-19T01:24:21.207Z,91.9
2022-08-19T01:29:21.204Z,91.9
2022-08-19T01:34:21.208Z,91.8
2022-08-19T01:39:21.214Z,91.8
2022-08-19T01:44:21.201Z,91.6
2022-08-19T01:49:21.213Z,90.7
2022-08-19T01:54:23.090Z,89.9
2022-08-19T01:59:21.215Z,88.7
2022-08-19T02:04:21.214Z,88.4
2022-08-19T02:09:21.200Z,88.4
2022-08-19T02:14:21.218Z,88.6
2022-08-19T02:19:21.218Z,88.1
2022-08-19T02:24:21.221Z,87.2
2022-08-19T02:29:21.211Z,86.4
2022-08-19T02:34:21.233Z,85.9
2022-08-19T02:39:21.207Z,85.8
2022-08-19T02:44:31.198Z,85.9
2022-08-19T02:49:21.230Z,85.7
2022-08-19T02:54:21.235Z,85.5
2022-08-19T02:59:23.122Z,85.3
2022-08-19T03:04:21.227Z,84.9
2022-08-19T03:09:21.242Z,84.5
2022-08-19T03:14:21.268Z,84.1
2022-08-19T03:19:21.237Z,83.5
2022-08-19T03:24:21.248Z,82.9
2022-08-19T03:29:30.622Z,82.1
2022-08-19T03:34:21.288Z,81.5
2022-08-19T03:39:21.249Z,80.8
2022-08-19T03:44:21.262Z,80.1
2022-08-19T03:49:21.251Z,79.7
2022-08-19T03:54:21.272Z,79.4
2022-08-19T03:59:21.259Z,79.1
2022-08-19T04:04:21.272Z,78.9
2022-08-19T04:09:21.271Z,78.4
2022-08-19T04:14:21.273Z,77.8
2022-08-19T04:19:21.280Z,77.4
2022-08-19T04:24:21.272Z,77.1
2022-08-19T04:29:21.274Z,76.8
2022-08-19T04:34:21.287Z,76.4
2022-08-19T04:39:21.285Z,76.3
2022-08-19T04:44:21.288Z,76.1
2022-08-19T04:49:21.246Z,76.0
2022-08-19T04:54:37.730Z,76.0
2022-08-19T04:59:21.276Z,76.0
2022-08-19T05:04:21.468Z,76.3
2022-08-19T05:09:21.288Z,76.6
2022-08-19T05:14:21.290Z,76.9
2022-08-19T05:19:21.294Z,77.0
2022-08-19T05:24:21.301Z,77.0
2022-08-19T05:29:21.320Z,77.0
2022-08-19T05:34:21.295Z,77.1
2022-08-19T05:39:21.303Z,77.1
2022-08-19T05:44:21.309Z,77.0
2022-08-19T05:49:21.308Z,77.2
2022-08-19T05:54:21.310Z,76.7
2022-08-19T05:59:21.323Z,74.4
2022-08-19T06:04:21.314Z,72.3
2022-08-19T06:09:21.310Z,70.5
2022-08-19T06:14:21.323Z,69.2
2022-08-19T06:19:21.321Z,67.9
2022-08-19T06:24:21.360Z,66.6
2022-08-19T06:29:24.070Z,65.2
2022-08-19T06:34:21.335Z,64.1
2022-08-19T06:39:21.334Z,63.0
2022-08-19T06:44:21.371Z,62.7
2022-08-19T06:49:21.321Z,63.0
2022-08-19T06:54:21.344Z,62.5
2022-08-19T06:59:21.337Z,61.6
2022-08-19T07:04:21.356Z,61.1
2022-08-19T07:09:21.377Z,60.2
2022-08-19T07:14:21.350Z,60.0
2022-08-19T07:19:21.347Z,59.9
2022-08-19T07:24:21.348Z,59.2
2022-08-19T07:29:21.355Z,58.0
2022-08-19T07:34:21.358Z,57.2
2022-08-19T07:39:21.344Z,56.1
2022-08-19T07:44:21.358Z,55.6
2022-08-19T07:49:21.362Z,54.4
2022-08-19T07:54:21.364Z,54.0
2022-08-19T07:59:21.371Z,53.4
2022-08-19T08:04:21.366Z,52.8
2022-08-19T08:14:29.657Z,51.3
2022-08-19T08:19:25.582Z,50.3
2022-08-19T08:24:21.382Z,49.9
2022-08-19T08:29:21.384Z,49.6
2022-08-19T08:34:21.372Z,49.4
2022-08-19T08:39:21.390Z,48.6
2022-08-19T08:44:21.930Z,48.2
2022-08-19T08:49:21.424Z,47.3
2022-08-19T08:54:21.396Z,47.2
2022-08-19T08:59:21.390Z,46.6
2022-08-19T09:04:21.404Z,47.2
2022-08-19T09:09:21.392Z,46.8
2022-08-19T09:14:47.384Z,46.2
2022-08-19T09:19:22.297Z,46.1
2022-08-19T09:24:21.410Z,45.1
2022-08-19T09:29:22.702Z,44.9
2022-08-19T09:34:22.166Z,44.2
2022-08-19T09:39:21.435Z,43.7
2022-08-19T09:44:21.851Z,43.6
2022-08-19T09:49:21.409Z,43.2
2022-08-19T09:54:23.678Z,43.6
2022-08-19T09:59:21.427Z,43.8
2022-08-19T10:04:22.143Z,43.4
2022-08-19T10:09:26.124Z,44.0
2022-08-19T10:14:21.442Z,43.6
2022-08-19T10:19:26.069Z,43.3
2022-08-19T10:24:21.511Z,43.1
2022-08-19T10:29:31.872Z,42.0
2022-08-19T10:34:27.624Z,41.1
2022-08-19T10:39:22.837Z,42.6
2022-08-19T10:44:21.420Z,44.5
2022-08-19T10:49:21.444Z,44.6
2022-08-19T10:54:33.173Z,44.9
2022-08-19T10:59:21.448Z,44.8
2022-08-19T11:04:21.434Z,44.3
2022-08-19T11:09:21.459Z,43.6
2022-08-19T11:14:21.440Z,43.0
2022-08-19T11:19:21.457Z,43.4
2022-08-19T11:24:21.463Z,43.5
2022-08-19T11:29:21.448Z,43.3
2022-08-19T11:34:21.470Z,43.4
2022-08-19T11:39:21.502Z,42.9
2022-08-19T11:44:21.482Z,42.6
2022-08-19T11:49:21.456Z,42.8
2022-08-19T11:54:21.475Z,42.6
2022-08-19T11:59:21.460Z,42.0
2022-08-19T12:04:21.576Z,41.5
2022-08-19T12:09:21.480Z,40.8
2022-08-19T12:14:21.507Z,40.8
2022-08-19T12:19:22.183Z,40.3
2022-08-19T12:24:21.494Z,40.5
2022-08-19T12:29:23.654Z,40.1
2022-08-19T12:34:21.498Z,39.7
2022-08-19T12:39:21.473Z,39.5
2022-08-19T12:44:21.483Z,39.6
2022-08-19T12:49:52.370Z,39.5
2022-08-19T12:54:21.480Z,39.3
2022-08-19T12:59:21.492Z,39.8
2022-08-19T13:04:21.503Z,39.4
2022-08-19T13:09:21.491Z,39.7
2022-08-19T13:14:21.503Z,40.3
2022-08-19T13:19:21.508Z,40.7
2022-08-19T13:24:21.503Z,41.0
2022-08-19T13:29:21.492Z,40.6
2022-08-19T13:34:21.517Z,39.8
2022-08-19T13:39:21.501Z,39.3
2022-08-19T13:44:21.513Z,38.8
2022-08-19T13:49:21.513Z,38.8
2022-08-19T13:54:21.513Z,39.3
2022-08-19T13:59:21.524Z,39.6
2022-08-19T14:04:21.510Z,40.3
2022-08-19T14:09:21.543Z,40.6
2022-08-19T14:14:21.513Z,40.4
2022-08-19T14:19:21.531Z,39.5
2022-08-19T14:24:21.501Z,39.2
2022-08-19T14:29:21.531Z,38.6
2022-08-19T14:34:21.533Z,38.5
2022-08-19T14:39:21.526Z,38.1
2022-08-19T14:44:21.546Z,38.3
2022-08-19T14:49:21.559Z,39.0
2022-08-19T14:54:21.549Z,39.2
2022-08-19T14:59:21.542Z,39.2
2022-08-19T15:04:21.557Z,39.5
2022-08-19T15:09:21.547Z,38.5
2022-08-19T15:14:21.566Z,38.2
2022-08-19T15:19:21.573Z,38.2
2022-08-19T15:24:21.565Z,38.9
2022-08-19T15:29:21.553Z,39.1
2022-08-19T15:34:21.572Z,39.3
2022-08-19T15:39:21.558Z,39.2
2022-08-19T15:44:21.578Z,39.7
2022-08-19T15:49:21.566Z,40.7
2022-08-19T15:54:21.584Z,41.4
2022-08-19T15:59:21.577Z,41.9
2022-08-19T16:04:21.571Z,42.0
2022-08-19T16:09:26.629Z,42.0
2022-08-19T16:14:21.585Z,42.0
2022-08-19T16:19:21.581Z,41.5
2022-08-19T16:24:21.566Z,41.4
2022-08-19T16:29:33.352Z,41.4
2022-08-19T16:34:21.597Z,41.7
2022-08-19T16:39:21.589Z,41.8
2022-08-19T16:44:21.587Z,42.2
2022-08-19T16:49:52.233Z,42.8
2022-08-19T16:54:21.589Z,42.9
2022-08-19T16:59:21.592Z,42.9
2022-08-19T17:04:21.599Z,43.5
2022-08-19T17:09:25.805Z,44.1
2022-08-19T17:14:21.604Z,44.3
2022-08-19T17:19:21.599Z,44.5
2022-08-19T17:24:21.599Z,44.7
2022-08-19T17:29:21.629Z,44.7
2022-08-19T17:34:21.603Z,44.4
2022-08-19T17:39:21.621Z,43.9
2022-08-19T17:44:21.619Z,44.0
2022-08-19T17:49:21.608Z,44.5
2022-08-19T17:54:21.598Z,45.0
2022-08-19T17:59:21.614Z,45.4
2022-08-19T18:04:21.609Z,45.8
2022-08-19T18:09:23.943Z,46.1
2022-08-19T18:14:21.628Z,46.3
2022-08-19T18:19:21.615Z,46.5
2022-08-19T18:24:21.627Z,46.8
2022-08-19T18:29:21.620Z,47.2
2022-08-19T18:34:21.626Z,47.5
2022-08-19T18:39:21.618Z,48.0
2022-08-19T18:44:21.652Z,48.5
2022-08-19T18:49:21.625Z,48.9
2022-08-19T18:54:21.652Z,49.3
2022-08-19T18:59:21.635Z,49.7
2022-08-19T19:04:21.633Z,49.9
2022-08-19T19:09:21.633Z,50.0
2022-08-19T19:14:45.722Z,50.3
2022-08-19T19:19:21.650Z,50.7
2022-08-19T19:24:21.661Z,51.0
2022-08-19T19:29:21.644Z,51.3
2022-08-19T19:34:29.783Z,51.7
2022-08-19T19:39:46.346Z,52.2
2022-08-19T19:44:29.250Z,52.6
2022-08-19T19:49:21.636Z,53.0
2022-08-19T19:54:23.588Z,53.6
2022-08-19T19:59:21.625Z,54.1
2022-08-19T20:04:21.649Z,54.8
2022-08-19T20:09:21.665Z,55.1
2022-08-19T20:14:21.654Z,55.8
2022-08-19T20:19:21.644Z,56.5
2022-08-19T20:24:21.639Z,57.1
2022-08-19T20:29:38.127Z,57.5
2022-08-19T20:34:21.665Z,58.0
2022-08-19T20:39:21.645Z,58.3
2022-08-19T20:44:21.668Z,58.6
2022-08-19T20:49:21.658Z,58.9
2022-08-19T20:54:21.706Z,59.4
2022-08-19T20:59:21.655Z,59.7
2022-08-19T21:04:21.683Z,60.0
2022-08-19T21:09:21.667Z,60.3
2022-08-19T21:14:21.676Z,60.6
2022-08-19T21:19:24.041Z,60.9
2022-08-19T21:24:21.672Z,61.7
2022-08-19T21:29:21.655Z,62.0
2022-08-19T21:34:21.679Z,62.4
2022-08-19T21:39:21.673Z,62.8
2022-08-19T21:44:21.680Z,63.1
2022-08-19T21:49:21.653Z,63.3
2022-08-19T21:54:21.671Z,63.7
2022-08-19T21:59:21.659Z,64.0
2022-08-19T22:04:21.784Z,64.1
2022-08-19T22:09:21.687Z,64.3
2022-08-19T22:14:21.671Z,64.5
2022-08-19T22:19:21.670Z,64.6
2022-08-19T22:24:21.685Z,65.0
2022-08-19T22:29:31.851Z,65.2
2022-08-19T22:34:21.680Z,65.5
2022-08-19T22:39:21.677Z,65.8
2022-08-19T22:44:21.700Z,65.8
2022-08-19T22:49:21.688Z,65.5
2022-08-19T22:54:21.676Z,65.4
2022-08-19T22:59:21.675Z,65.3
2022-08-19T23:04:21.676Z,65.5
2022-08-19T23:09:23.458Z,65.5
2022-08-19T23:14:21.691Z,65.5
2022-08-19T23:19:21.677Z,65.7
2022-08-19T23:24:21.696Z,66.2
2022-08-19T23:29:21.673Z,66.5
2022-08-19T23:34:21.695Z,66.9
2022-08-19T23:39:21.693Z,67.2
2022-08-19T23:44:21.688Z,67.4
2022-08-19T23:49:21.678Z,67.5
2022-08-19T23:54:21.725Z,67.6
2022-08-19T23:59:21.678Z,67.7
